createdAt,value
2018-01-30T00:01:42.749Z,10.47
2018-01-30T00:04:11.197Z,10.44
2018-01-30T00:06:39.636Z,10.32
2018-01-30T00:09:08.052Z,10.33
2018-01-30T00:11:36.506Z,10.28
2018-01-30T00:14:04.926Z,10.22
2018-01-30T00:16:33.357Z,10.22
2018-01-30T00:19:01.761Z,10.19
2018-01-30T00:21:30.153Z,10.11
2018-01-30T00:23:58.632Z,10.08
2018-01-30T00:26:27.092Z,10.08
2018-01-30T00:28:55.544Z,10.12
2018-01-30T00:31:23.987Z,10.15
2018-01-30T00:33:52.448Z,10.14
2018-01-30T00:36:20.848Z,10.10
2018-01-30T00:38:49.260Z,10.14
2018-01-30T00:41:17.740Z,10.11
2018-01-30T00:43:46.168Z,10.05
2018-01-30T00:46:14.623Z,10.06
2018-01-30T00:48:43.045Z,10.02
2018-01-30T00:51:11.491Z,9.94
2018-01-30T00:53:40.028Z,9.94
2018-01-30T00:56:08.521Z,9.92
2018-01-30T00:58:36.964Z,9.91
2018-01-30T01:01:05.368Z,9.94
2018-01-30T01:03:33.863Z,9.84
2018-01-30T01:06:02.337Z,9.83
2018-01-30T01:08:30.762Z,9.82
2018-01-30T01:10:59.180Z,9.81
2018-01-30T01:13:27.669Z,9.86
2018-01-30T01:15:56.151Z,9.89
2018-01-30T01:18:24.593Z,9.92
2018-01-30T01:20:52.971Z,9.85
2018-01-30T01:23:21.453Z,9.92
2018-01-30T01:25:49.881Z,9.93
2018-01-30T01:28:18.280Z,9.98
2018-01-30T01:30:46.716Z,9.93
2018-01-30T01:33:15.157Z,9.88
2018-01-30T01:35:43.520Z,9.91
2018-01-30T01:38:11.900Z,9.88
2018-01-30T01:40:40.357Z,9.91
2018-01-30T01:43:08.839Z,9.93
2018-01-30T01:45:37.314Z,9.93
2018-01-30T01:48:05.721Z,9.90
2018-01-30T01:50:34.216Z,9.86
2018-01-30T01:53:02.709Z,9.76
2018-01-30T01:55:31.078Z,9.76
2018-01-30T01:57:59.510Z,9.75
2018-01-30T02:00:27.971Z,9.74
2018-01-30T02:02:56.341Z,9.72
2018-01-30T02:05:24.809Z,9.65
2018-01-30T02:07:53.256Z,9.62
2018-01-30T02:10:21.653Z,9.62
2018-01-30T02:12:50.109Z,9.58
2018-01-30T02:15:18.601Z,9.54
2018-01-30T02:17:47.040Z,9.53
2018-01-30T02:20:15.421Z,9.53
2018-01-30T02:22:43.908Z,9.55
2018-01-30T02:25:12.293Z,9.58
2018-01-30T02:27:40.714Z,9.56
2018-01-30T02:30:09.145Z,9.56
2018-01-30T02:32:37.533Z,9.57
2018-01-30T02:35:06.037Z,9.62
2018-01-30T02:37:34.484Z,9.63
2018-01-30T02:40:02.869Z,9.66
2018-01-30T02:42:31.324Z,9.72
2018-01-30T02:44:59.737Z,9.79
2018-01-30T02:47:28.150Z,9.81
2018-01-30T02:49:56.581Z,9.85
2018-01-30T02:52:25.016Z,9.88
2018-01-30T02:54:53.519Z,9.90
2018-01-30T02:57:21.961Z,9.91
2018-01-30T02:59:50.445Z,9.96
2018-01-30T03:02:18.828Z,10.01
2018-01-30T03:04:47.265Z,10.06
2018-01-30T03:07:15.675Z,10.07
2018-01-30T03:09:44.105Z,10.00
2018-01-30T03:12:12.592Z,10.07
2018-01-30T03:14:40.979Z,10.03
2018-01-30T03:17:09.410Z,9.98
2018-01-30T03:19:37.852Z,10.00
2018-01-30T03:22:06.338Z,10.00
2018-01-30T03:24:34.846Z,9.98
2018-01-30T03:27:03.307Z,9.90
2018-01-30T03:29:31.708Z,9.76
2018-01-30T03:32:00.201Z,9.72
2018-01-30T03:34:28.649Z,9.63
2018-01-30T03:36:57.069Z,9.69
2018-01-30T03:39:25.510Z,9.69
2018-01-30T03:41:53.928Z,9.68
2018-01-30T03:44:22.419Z,9.64
2018-01-30T03:46:50.920Z,9.56
2018-01-30T03:49:19.361Z,9.55
2018-01-30T03:51:47.757Z,9.55
2018-01-30T03:54:16.156Z,9.48
2018-01-30T03:56:45.269Z,9.47
2018-01-30T03:59:13.723Z,9.49
2018-01-30T04:01:42.187Z,9.49
2018-01-30T04:04:10.610Z,9.33
2018-01-30T04:06:39.026Z,9.16
2018-01-30T04:09:07.438Z,8.92
2018-01-30T04:11:35.881Z,8.67
2018-01-30T04:14:04.264Z,8.44
2018-01-30T04:16:32.696Z,8.24
2018-01-30T04:19:01.098Z,8.03
2018-01-30T04:21:29.544Z,7.87
2018-01-30T04:23:57.997Z,7.69
2018-01-30T04:26:26.447Z,7.51
2018-01-30T04:28:54.896Z,7.41
2018-01-30T04:31:23.313Z,7.26
2018-01-30T04:33:51.696Z,7.21
2018-01-30T04:36:20.102Z,7.09
2018-01-30T04:38:48.572Z,7.00
2018-01-30T04:41:16.949Z,6.90
2018-01-30T04:43:45.389Z,6.81
2018-01-30T04:46:13.800Z,6.73
2018-01-30T04:48:42.257Z,6.65
2018-01-30T04:51:10.696Z,6.59
2018-01-30T04:53:39.080Z,6.52
2018-01-30T04:56:07.573Z,6.21
2018-01-30T04:58:35.947Z,6.27
2018-01-30T05:01:04.357Z,6.26
2018-01-30T05:03:32.857Z,6.24
2018-01-30T05:06:01.254Z,6.21
2018-01-30T05:08:29.656Z,6.15
2018-01-30T05:10:58.104Z,6.03
2018-01-30T05:13:26.500Z,5.93
2018-01-30T05:15:55.015Z,5.95
2018-01-30T05:18:23.478Z,5.88
2018-01-30T05:20:51.966Z,5.90
2018-01-30T05:23:20.433Z,5.81
2018-01-30T05:25:48.909Z,5.75
2018-01-30T05:28:17.378Z,5.70
2018-01-30T05:30:45.964Z,5.57
2018-01-30T05:33:14.374Z,5.49
2018-01-30T05:35:42.785Z,5.57
2018-01-30T05:38:11.225Z,5.56
2018-01-30T05:40:40.609Z,5.50
2018-01-30T05:43:09.021Z,5.50
2018-01-30T05:45:37.460Z,5.46
2018-01-30T05:48:05.949Z,5.45
2018-01-30T05:50:34.405Z,5.51
2018-01-30T05:53:02.805Z,5.45
2018-01-30T05:55:31.216Z,5.51
2018-01-30T05:57:59.640Z,5.42
2018-01-30T06:00:28.045Z,5.42
2018-01-30T06:02:56.557Z,5.49
2018-01-30T06:05:24.969Z,5.50
2018-01-30T06:07:53.410Z,5.41
2018-01-30T06:10:21.823Z,5.42
2018-01-30T06:12:50.276Z,5.43
2018-01-30T06:15:18.677Z,5.38
2018-01-30T06:17:47.069Z,5.33
2018-01-30T06:20:15.545Z,5.47
2018-01-30T06:22:44.014Z,5.51
2018-01-30T06:25:12.459Z,5.38
2018-01-30T06:27:40.917Z,5.58
2018-01-30T06:30:09.428Z,5.70
2018-01-30T06:32:37.858Z,5.76
2018-01-30T06:35:06.329Z,5.91
2018-01-30T06:37:34.764Z,5.99
2018-01-30T06:40:03.222Z,6.12
2018-01-30T06:42:31.627Z,5.96
2018-01-30T06:45:00.125Z,6.35
2018-01-30T06:47:28.556Z,6.49
2018-01-30T06:49:57.005Z,6.62
2018-01-30T06:52:25.464Z,6.77
2018-01-30T06:54:53.896Z,6.86
2018-01-30T06:57:22.332Z,6.74
2018-01-30T06:59:50.780Z,7.10
2018-01-30T07:02:19.225Z,7.28
2018-01-30T07:04:48.027Z,7.23
2018-01-30T07:07:16.513Z,7.22
2018-01-30T07:09:45.015Z,7.54
2018-01-30T07:12:13.569Z,7.69
2018-01-30T07:14:42.089Z,7.80
2018-01-30T07:17:10.467Z,7.83
2018-01-30T07:19:38.893Z,8.01
2018-01-30T07:22:07.385Z,8.15
2018-01-30T07:24:35.780Z,8.12
2018-01-30T07:27:04.207Z,8.29
2018-01-30T07:29:32.658Z,8.37
2018-01-30T07:32:01.108Z,8.41
2018-01-30T07:34:29.601Z,8.57
2018-01-30T07:36:57.997Z,8.54
2018-01-30T07:39:26.420Z,8.72
2018-01-30T07:41:54.834Z,8.80
2018-01-30T07:44:23.295Z,8.90
2018-01-30T07:46:51.739Z,8.75
2018-01-30T07:49:20.147Z,9.02
2018-01-30T07:51:48.677Z,9.09
2018-01-30T07:54:17.086Z,9.18
2018-01-30T07:56:45.529Z,9.16
2018-01-30T07:59:13.941Z,9.29
2018-01-30T08:01:42.376Z,9.33
2018-01-30T08:04:10.777Z,9.45
2018-01-30T08:06:39.212Z,9.57
2018-01-30T08:09:07.670Z,9.52
2018-01-30T08:11:36.113Z,9.63
2018-01-30T08:14:04.564Z,9.68
2018-01-30T08:16:32.997Z,9.82
2018-01-30T08:19:01.397Z,9.91
2018-01-30T08:21:29.843Z,10.02
2018-01-30T08:23:58.283Z,10.22
2018-01-30T08:26:26.793Z,10.36
2018-01-30T08:28:55.742Z,10.38
2018-01-30T08:31:24.393Z,10.58
2018-01-30T08:33:54.618Z,10.59
2018-01-30T08:36:25.971Z,10.69
2018-01-30T08:38:56.688Z,10.90
2018-01-30T08:41:25.884Z,10.93
2018-01-30T08:43:54.316Z,10.98
2018-01-30T08:46:22.949Z,11.17
2018-01-30T08:48:51.422Z,11.32
2018-01-30T08:51:19.897Z,11.39
2018-01-30T08:53:48.291Z,11.57
2018-01-30T08:56:16.712Z,11.56
2018-01-30T08:58:45.201Z,11.72
2018-01-30T09:01:13.641Z,11.88
2018-01-30T09:03:42.041Z,11.92
2018-01-30T09:06:10.485Z,12.11
2018-01-30T09:08:38.933Z,12.22
2018-01-30T09:11:07.331Z,12.25
2018-01-30T09:13:35.843Z,12.35
2018-01-30T09:16:04.269Z,12.39
2018-01-30T09:18:32.723Z,12.52
2018-01-30T09:21:01.205Z,12.68
2018-01-30T09:23:29.711Z,12.72
2018-01-30T09:25:58.148Z,12.84
2018-01-30T09:28:26.570Z,12.92
2018-01-30T09:30:54.996Z,13.08
2018-01-30T09:33:23.480Z,13.14
2018-01-30T09:35:51.982Z,13.30
2018-01-30T09:38:20.392Z,13.32
2018-01-30T09:40:48.853Z,13.47
2018-01-30T09:43:17.381Z,13.58
2018-01-30T09:45:45.769Z,13.57
2018-01-30T09:48:14.172Z,13.73
2018-01-30T09:50:42.677Z,13.85
2018-01-30T09:53:11.108Z,13.90
2018-01-30T09:55:39.601Z,14.06
2018-01-30T09:58:08.069Z,14.18
2018-01-30T10:00:36.517Z,14.30
2018-01-30T10:03:04.943Z,14.41
2018-01-30T10:05:33.348Z,14.49
2018-01-30T10:08:01.821Z,14.64
2018-01-30T10:10:30.265Z,14.71
2018-01-30T10:12:58.706Z,14.72
2018-01-30T10:15:27.109Z,14.69
2018-01-30T10:17:55.717Z,14.89
2018-01-30T10:20:24.785Z,14.98
2018-01-30T10:22:53.248Z,15.03
2018-01-30T10:25:21.764Z,15.11
2018-01-30T10:27:50.257Z,15.18
2018-01-30T10:30:18.721Z,15.25
2018-01-30T10:32:47.217Z,15.31
2018-01-30T10:35:15.623Z,15.35
2018-01-30T10:37:44.092Z,15.32
2018-01-30T10:40:12.508Z,15.54
2018-01-30T10:42:40.900Z,15.68
2018-01-30T10:45:09.334Z,15.90
2018-01-30T10:47:37.754Z,16.05
2018-01-30T10:50:06.211Z,16.18
2018-01-30T10:52:34.677Z,16.30
2018-01-30T10:55:03.121Z,16.32
2018-01-30T10:57:31.548Z,16.27
2018-01-30T11:00:00.113Z,16.38
2018-01-30T11:02:28.621Z,16.48
2018-01-30T11:04:57.037Z,16.55
2018-01-30T11:07:25.559Z,16.62
2018-01-30T11:09:54.061Z,16.69
2018-01-30T11:12:22.445Z,16.85
2018-01-30T11:14:50.828Z,16.97
2018-01-30T11:17:19.328Z,17.03
2018-01-30T11:19:47.789Z,17.07
2018-01-30T11:22:16.246Z,17.23
2018-01-30T11:24:44.702Z,17.23
2018-01-30T11:27:13.093Z,17.44
2018-01-30T11:29:41.537Z,17.60
2018-01-30T11:32:09.925Z,17.57
2018-01-30T11:34:38.409Z,17.66
2018-01-30T11:37:06.845Z,17.79
2018-01-30T11:39:35.350Z,17.74
2018-01-30T11:42:03.740Z,17.87
2018-01-30T11:44:32.265Z,17.98
2018-01-30T11:47:00.700Z,18.07
2018-01-30T11:49:29.168Z,18.09
2018-01-30T11:51:57.618Z,18.14
2018-01-30T11:54:26.048Z,18.20
2018-01-30T11:56:54.493Z,18.08
2018-01-30T11:59:22.933Z,18.19
2018-01-30T12:01:51.385Z,18.24
2018-01-30T12:04:19.827Z,18.28
2018-01-30T12:06:48.239Z,18.23
2018-01-30T12:09:16.737Z,18.30
2018-01-30T12:11:45.167Z,18.36
2018-01-30T12:14:13.605Z,18.38
2018-01-30T12:16:42.049Z,18.39
2018-01-30T12:19:10.468Z,18.38
2018-01-30T12:21:38.953Z,18.41
2018-01-30T12:24:07.388Z,18.43
2018-01-30T12:26:35.849Z,18.49
2018-01-30T12:29:04.328Z,18.51
2018-01-30T12:31:32.726Z,18.63
2018-01-30T12:34:01.248Z,18.69
2018-01-30T12:36:29.734Z,18.65
2018-01-30T12:38:58.133Z,18.78
2018-01-30T12:41:26.625Z,18.89
2018-01-30T12:43:55.131Z,19.10
2018-01-30T12:46:23.539Z,19.17
2018-01-30T12:48:51.976Z,19.31
2018-01-30T12:51:20.421Z,19.34
2018-01-30T12:53:48.986Z,19.31
2018-01-30T12:56:17.470Z,19.33
2018-01-30T12:58:45.860Z,19.24
2018-01-30T13:01:14.326Z,19.24
2018-01-30T13:03:42.773Z,19.03
2018-01-30T13:06:11.228Z,19.06
2018-01-30T13:08:39.648Z,19.20
2018-01-30T13:11:08.097Z,19.14
2018-01-30T13:13:36.498Z,19.20
2018-01-30T13:16:04.886Z,19.18
2018-01-30T13:18:33.344Z,19.15
2018-01-30T13:21:01.783Z,19.05
2018-01-30T13:23:30.224Z,19.04
2018-01-30T13:25:58.650Z,19.09
2018-01-30T13:28:27.068Z,18.97
2018-01-30T13:30:55.452Z,18.90
2018-01-30T13:33:24.016Z,18.86
2018-01-30T13:35:52.421Z,18.92
2018-01-30T13:38:20.954Z,18.83
2018-01-30T13:40:49.343Z,18.87
2018-01-30T13:43:17.743Z,18.84
2018-01-30T13:45:46.187Z,18.81
2018-01-30T13:48:14.610Z,18.75
2018-01-30T13:50:43.061Z,18.68
2018-01-30T13:53:11.521Z,18.56
2018-01-30T13:55:39.990Z,18.65
2018-01-30T13:58:08.428Z,18.68
2018-01-30T14:00:36.879Z,18.60
2018-01-30T14:03:05.386Z,18.56
2018-01-30T14:05:33.816Z,18.45
2018-01-30T14:08:02.262Z,18.44
2018-01-30T14:10:30.658Z,18.23
2018-01-30T14:12:59.155Z,18.28
2018-01-30T14:15:27.565Z,18.19
2018-01-30T14:17:56.053Z,18.20
2018-01-30T14:20:24.499Z,18.07
2018-01-30T14:22:52.937Z,18.08
2018-01-30T14:25:21.388Z,18.01
2018-01-30T14:27:49.830Z,17.97
2018-01-30T14:30:18.217Z,17.85
2018-01-30T14:32:46.700Z,17.88
2018-01-30T14:35:15.137Z,17.78
2018-01-30T14:37:43.533Z,17.70
2018-01-30T14:40:11.968Z,17.55
2018-01-30T14:42:40.355Z,17.49
2018-01-30T14:45:08.749Z,17.47
2018-01-30T14:47:37.189Z,17.38
2018-01-30T14:50:05.618Z,17.29
2018-01-30T14:52:34.081Z,17.24
2018-01-30T14:55:02.560Z,17.08
2018-01-30T14:57:31.093Z,17.01
2018-01-30T14:59:59.595Z,16.86
2018-01-30T15:02:28.105Z,16.85
2018-01-30T15:04:56.561Z,16.71
2018-01-30T15:07:25.049Z,16.66
2018-01-30T15:09:53.506Z,16.56
2018-01-30T15:12:22.001Z,16.48
2018-01-30T15:14:50.490Z,16.43
2018-01-30T15:17:18.946Z,16.37
2018-01-30T15:19:47.457Z,16.24
2018-01-30T15:22:15.909Z,16.22
2018-01-30T15:24:44.413Z,16.17
2018-01-30T15:27:12.909Z,16.06
2018-01-30T15:29:41.409Z,15.94
2018-01-30T15:32:09.932Z,15.90
2018-01-30T15:34:38.447Z,15.77
2018-01-30T15:37:06.968Z,15.74
2018-01-30T15:39:35.486Z,15.67
2018-01-30T15:42:03.992Z,15.67
2018-01-30T15:44:32.490Z,15.42
2018-01-30T15:47:00.946Z,15.40
2018-01-30T15:49:29.447Z,15.42
2018-01-30T15:51:57.909Z,15.32
2018-01-30T15:54:26.425Z,15.28
2018-01-30T15:56:54.892Z,15.23
2018-01-30T15:59:23.398Z,15.16
2018-01-30T16:01:51.864Z,15.04
2018-01-30T16:04:20.363Z,15.05
2018-01-30T16:06:48.857Z,15.02
2018-01-30T16:09:17.334Z,15.01
2018-01-30T16:11:45.817Z,14.95
2018-01-30T16:14:14.272Z,14.87
2018-01-30T16:16:42.788Z,14.87
2018-01-30T16:19:11.258Z,14.84
2018-01-30T16:21:39.782Z,14.82
2018-01-30T16:24:08.325Z,14.78
2018-01-30T16:26:36.842Z,14.75
2018-01-30T16:29:05.337Z,14.76
2018-01-30T16:31:33.854Z,14.69
2018-01-30T16:34:02.412Z,14.57
2018-01-30T16:36:30.874Z,14.54
2018-01-30T16:38:59.389Z,14.51
2018-01-30T16:41:27.879Z,14.48
2018-01-30T16:43:56.382Z,14.46
2018-01-30T16:46:24.849Z,14.33
2018-01-30T16:48:53.400Z,14.31
2018-01-30T16:51:21.856Z,14.22
2018-01-30T16:53:50.357Z,14.17
2018-01-30T16:56:18.862Z,14.05
2018-01-30T16:58:47.382Z,13.83
2018-01-30T17:01:15.964Z,13.76
2018-01-30T17:03:44.517Z,13.61
2018-01-30T17:06:13.059Z,13.46
2018-01-30T17:08:41.530Z,13.41
2018-01-30T17:11:10.078Z,13.27
2018-01-30T17:13:38.560Z,13.26
2018-01-30T17:16:07.035Z,13.33
2018-01-30T17:18:35.489Z,13.27
2018-01-30T17:21:03.969Z,13.32
2018-01-30T17:23:32.461Z,13.34
2018-01-30T17:26:00.936Z,13.28
2018-01-30T17:28:29.421Z,13.17
2018-01-30T17:30:57.925Z,13.29
2018-01-30T17:33:26.380Z,13.21
2018-01-30T17:35:54.877Z,13.32
2018-01-30T17:38:23.366Z,13.37
2018-01-30T17:40:51.846Z,13.32
2018-01-30T17:43:20.305Z,13.31
2018-01-30T17:45:48.816Z,13.29
2018-01-30T17:48:17.277Z,13.18
2018-01-30T17:50:45.768Z,13.18
2018-01-30T17:53:14.246Z,13.13
2018-01-30T17:55:42.683Z,13.06
2018-01-30T17:58:11.167Z,13.09
2018-01-30T18:00:39.664Z,13.06
2018-01-30T18:03:08.126Z,13.05
2018-01-30T18:05:36.638Z,13.02
2018-01-30T18:08:05.142Z,12.89
2018-01-30T18:10:33.636Z,12.88
2018-01-30T18:13:02.066Z,12.84
2018-01-30T18:15:30.553Z,12.78
2018-01-30T18:17:59.001Z,12.75
2018-01-30T18:20:28.370Z,12.74
2018-01-30T18:22:56.820Z,12.79
2018-01-30T18:25:25.308Z,12.76
2018-01-30T18:27:53.754Z,12.74
2018-01-30T18:30:22.374Z,12.76
2018-01-30T18:32:50.845Z,12.73
2018-01-30T18:35:19.330Z,12.70
2018-01-30T18:37:47.778Z,12.69
2018-01-30T18:40:16.278Z,12.71
2018-01-30T18:42:44.801Z,12.70
2018-01-30T18:45:13.264Z,12.67
2018-01-30T18:47:41.743Z,12.61
2018-01-30T18:50:10.245Z,12.60
2018-01-30T18:52:38.714Z,12.61
2018-01-30T18:55:07.182Z,12.64
2018-01-30T18:57:35.678Z,12.60
2018-01-30T19:00:04.199Z,12.59
2018-01-30T19:02:32.669Z,12.59
2018-01-30T19:05:01.214Z,12.61
2018-01-30T19:07:29.659Z,12.57
2018-01-30T19:09:58.117Z,12.54
2018-01-30T19:12:26.630Z,12.53
2018-01-30T19:14:55.142Z,12.47
2018-01-30T19:17:23.656Z,12.41
2018-01-30T19:19:52.159Z,12.30
2018-01-30T19:22:20.658Z,12.32
2018-01-30T19:24:49.153Z,12.25
2018-01-30T19:27:17.621Z,12.22
2018-01-30T19:29:46.142Z,12.22
2018-01-30T19:32:14.645Z,12.18
2018-01-30T19:34:43.170Z,12.07
2018-01-30T19:37:11.683Z,12.05
2018-01-30T19:39:40.154Z,12.03
2018-01-30T19:42:08.754Z,11.98
2018-01-30T19:44:37.217Z,11.96
2018-01-30T19:47:05.689Z,11.90
2018-01-30T19:49:34.205Z,11.80
2018-01-30T19:52:02.678Z,11.75
2018-01-30T19:54:31.186Z,11.73
2018-01-30T19:56:59.660Z,11.63
2018-01-30T19:59:28.173Z,11.60
2018-01-30T20:01:56.687Z,11.55
2018-01-30T20:04:25.161Z,11.56
2018-01-30T20:06:53.662Z,11.51
2018-01-30T20:09:22.158Z,11.35
2018-01-30T20:11:50.615Z,11.39
2018-01-30T20:14:19.117Z,11.44
2018-01-30T20:16:47.586Z,11.39
2018-01-30T20:19:16.058Z,11.40
2018-01-30T20:21:44.560Z,11.36
2018-01-30T20:24:13.026Z,11.26
2018-01-30T20:26:45.443Z,11.28
2018-01-30T20:29:13.898Z,11.28
2018-01-30T20:31:43.205Z,11.21
2018-01-30T20:34:11.701Z,11.19
2018-01-30T20:36:40.141Z,11.22
2018-01-30T20:39:08.622Z,11.15
2018-01-30T20:41:37.112Z,11.07
2018-01-30T20:44:05.570Z,11.13
2018-01-30T20:46:34.092Z,11.09
2018-01-30T20:49:02.552Z,11.08
2018-01-30T20:51:31.076Z,11.12
2018-01-30T20:53:59.605Z,11.14
2018-01-30T20:56:28.058Z,11.08
2018-01-30T20:58:56.553Z,11.09
2018-01-30T21:01:25.005Z,11.06
2018-01-30T21:03:53.510Z,11.03
2018-01-30T21:06:21.953Z,11.09
2018-01-30T21:08:50.442Z,11.09
2018-01-30T21:11:18.939Z,11.06
2018-01-30T21:13:48.229Z,11.05
2018-01-30T21:16:16.738Z,11.01
2018-01-30T21:18:45.200Z,11.06
2018-01-30T21:21:13.703Z,11.02
2018-01-30T21:23:42.172Z,10.94
2018-01-30T21:26:10.631Z,10.94
2018-01-30T21:28:39.138Z,10.97
2018-01-30T21:31:07.601Z,10.95
2018-01-30T21:33:36.127Z,10.96
2018-01-30T21:36:04.587Z,11.00
2018-01-30T21:38:33.046Z,10.96
2018-01-30T21:41:01.546Z,10.91
2018-01-30T21:43:29.998Z,10.88
2018-01-30T21:45:58.489Z,10.85
2018-01-30T21:48:26.946Z,10.83
2018-01-30T21:50:55.453Z,10.79
2018-01-30T21:53:23.910Z,10.74
2018-01-30T21:55:52.391Z,10.72
2018-01-30T21:58:20.913Z,10.73
2018-01-30T22:00:49.424Z,10.60
2018-01-30T22:03:17.931Z,10.56
2018-01-30T22:05:46.421Z,10.56
2018-01-30T22:08:14.934Z,10.61
2018-01-30T22:10:43.410Z,10.52
2018-01-30T22:13:11.940Z,10.55
2018-01-30T22:15:40.397Z,10.55
2018-01-30T22:18:08.960Z,10.52
2018-01-30T22:20:37.489Z,10.56
2018-01-30T22:23:05.956Z,10.59
2018-01-30T22:25:34.448Z,10.62
2018-01-30T22:28:02.949Z,10.71
2018-01-30T22:30:31.404Z,10.65
2018-01-30T22:32:59.912Z,10.68
2018-01-30T22:35:28.362Z,10.69
2018-01-30T22:37:56.865Z,10.71
2018-01-30T22:40:25.289Z,10.72
2018-01-30T22:42:53.855Z,10.67
2018-01-30T22:45:22.366Z,10.62
